This is the latest recevied weather packets stored in our database for station/object KSGT. If no packets are shown the sender has not sent any weather packets the latest 1 day(s).
| Time | Temp. | Humidity | Pressure | Rain* | Wind** | Luminosity | Snow |
|---|---|---|---|---|---|---|---|
| 1778096018 | 10.56° C | 100% | 1016.6 hPa | - | - | - | - |
| 1778095418 | 11.67° C | 93% | 1015.9 hPa | - | - | - | - |
| 1778094819 | 11.67° C | 93% | 1015.9 hPa | - | - | - | - |
| 1778093021 | 12.78° C | 82% | 1017.6 hPa | - | - | - | - |
| 1778092423 | 12.78° C | 82% | 1017.6 hPa | - | - | - | - |
| 1778091822 | 12.78° C | 82% | 1017.6 hPa | - | - | - | - |
| 1778091221 | 11.67° C | 87% | 1015.9 hPa | - | - | - | - |
| 1778090018 | 11.67° C | 93% | 1015.6 hPa | - | - | - | - |
| 1778088222 | 11.67° C | 93% | 1015.6 hPa | - | - | - | - |
| 1778086424 | 10.56° C | 93% | 1015.9 hPa | - | - | - | - |
| 1778085820 | 10.56° C | 93% | 1015.9 hPa | - | - | - | - |
| 1778083544 | 10.56° C | 93% | 1015.9 hPa | - | - | - | - |
| 1778082826 | 10.56° C | 93% | 1015.2 hPa | - | - | - | - |
| 1778076218 | 10.56° C | 100% | 1014.9 hPa | - | - | - | - |
| 1778074415 | 10.56° C | 100% | 1014.6 hPa | - | - | - | - |
| 1778073220 | 10.56° C | 100% | 1013.9 hPa | - | - | - | - |
| 1778072621 | 10.56° C | 100% | 1013.9 hPa | - | - | - | - |
| 1778070220 | 10.56° C | 100% | 1012.9 hPa | - | - | - | - |
| 1778069018 | 10.56° C | 100% | 1012.9 hPa | - | - | - | - |
| 1778067217 | 10.56° C | 100% | 1011.5 hPa | - | - | - | - |
| 1778066622 | 10.56° C | 100% | 1011.5 hPa | - | - | - | - |
| 1778066021 | 10.56° C | 100% | 1011.5 hPa | - | - | - | - |
| 1778065418 | 10.56° C | 100% | 1011.5 hPa | - | - | - | - |
| 1778064818 | 10.56° C | 100% | 1011.2 hPa | - | - | - | - |
| 1778064221 | 10.56° C | 100% | 1011.2 hPa | - | - | - | - |
* Rain since midnight (hover to see other rain measurements)
** Current wind speed in m/s (hover to see current wind gust speed)